createdAt,value
2023-11-22T04:54:53.132Z,4.99
2023-11-22T04:57:56.084Z,4.95
2023-11-22T05:00:58.549Z,4.91
2023-11-22T05:04:01.267Z,4.94
2023-11-22T05:07:04.346Z,4.83
2023-11-22T05:10:10.313Z,4.72
2023-11-22T05:13:12.445Z,4.66
2023-11-22T05:16:14.875Z,4.70
2023-11-22T05:19:17.160Z,4.70
2023-11-22T05:22:19.765Z,4.82
2023-11-22T05:25:21.997Z,4.81
2023-11-22T05:28:24.529Z,4.74
2023-11-22T05:31:27.002Z,4.76
2023-11-22T05:34:30.254Z,4.79
2023-11-22T05:37:32.622Z,4.68
2023-11-22T05:40:35.148Z,4.74
2023-11-22T05:43:37.832Z,4.69
2023-11-22T05:46:40.248Z,4.64
2023-11-22T05:49:42.523Z,4.51
2023-11-22T05:52:45.515Z,4.32
2023-11-22T05:55:51.501Z,4.34
2023-11-22T05:58:53.976Z,4.32
2023-11-22T06:01:56.169Z,4.14
2023-11-22T06:04:58.662Z,4.13
2023-11-22T06:08:00.939Z,4.08
2023-11-22T06:11:04.617Z,4.03
2023-11-22T06:14:06.842Z,3.98
2023-11-22T06:17:09.504Z,4.00
2023-11-22T06:20:12.354Z,4.08
2023-11-22T06:23:14.923Z,4.01
2023-11-22T06:26:17.151Z,4.03
2023-11-22T06:29:19.816Z,4.00
2023-11-22T06:32:22.027Z,4.23
2023-11-22T06:35:24.482Z,4.27
2023-11-22T06:38:26.822Z,4.41
2023-11-22T06:41:30.139Z,4.38
2023-11-22T06:44:32.488Z,4.34
2023-11-22T06:47:35.236Z,4.39
2023-11-22T06:50:37.507Z,4.53
2023-11-22T06:53:39.971Z,4.59
2023-11-22T06:56:42.121Z,4.55
2023-11-22T06:59:44.866Z,4.54
2023-11-22T07:02:47.277Z,4.67
2023-11-22T07:05:49.819Z,4.76
2023-11-22T07:08:52.051Z,4.75
2023-11-22T07:11:55.659Z,4.74
2023-11-22T07:14:58.044Z,4.86
2023-11-22T07:18:00.643Z,4.84
2023-11-22T07:21:04.376Z,4.89
2023-11-22T07:24:09.539Z,4.98
2023-11-22T07:27:16.314Z,5.10
2023-11-22T07:30:24.024Z,5.15
2023-11-22T07:33:27.405Z,5.14
2023-11-22T07:36:29.909Z,5.19
2023-11-22T07:39:32.428Z,5.21
2023-11-22T07:42:36.995Z,5.37
2023-11-22T07:45:39.328Z,5.40
2023-11-22T07:48:43.355Z,5.60
2023-11-22T07:51:48.412Z,5.69
2023-11-22T07:54:51.142Z,5.77
2023-11-22T07:57:54.258Z,5.99
2023-11-22T08:00:56.818Z,6.00
2023-11-22T08:03:59.345Z,6.10
2023-11-22T08:07:02.703Z,6.20
2023-11-22T08:10:10.784Z,6.26
2023-11-22T08:13:13.073Z,6.30
2023-11-22T08:16:15.611Z,6.40
2023-11-22T08:19:17.871Z,6.54
2023-11-22T08:22:20.399Z,6.61
2023-11-22T08:25:22.566Z,6.76
2023-11-22T08:28:25.046Z,6.85
2023-11-22T08:31:27.298Z,7.07
2023-11-22T08:34:29.869Z,7.17
2023-11-22T08:37:36.131Z,7.22
2023-11-22T08:40:38.623Z,7.23
2023-11-22T08:43:41.456Z,7.23
2023-11-22T08:46:44.195Z,7.42
2023-11-22T08:49:49.294Z,7.37
2023-11-22T08:52:54.772Z,7.34
2023-11-22T08:55:57.087Z,7.40
2023-11-22T08:58:59.485Z,7.64
2023-11-22T09:02:01.652Z,7.73
2023-11-22T09:05:07.743Z,7.89
2023-11-22T09:08:24.237Z,7.90
2023-11-22T09:11:29.417Z,7.86
2023-11-22T09:14:31.609Z,8.01
2023-11-22T09:17:34.200Z,8.03
2023-11-22T09:20:36.559Z,8.14
2023-11-22T09:23:39.821Z,8.26
2023-11-22T09:26:43.400Z,8.29
2023-11-22T09:29:46.237Z,8.47
2023-11-22T09:32:48.511Z,8.56
2023-11-22T09:35:51.989Z,8.48
2023-11-22T09:38:54.612Z,8.66
2023-11-22T09:41:57.135Z,8.61
2023-11-22T09:44:59.261Z,8.70
2023-11-22T09:48:03.768Z,8.89
2023-11-22T09:51:11.835Z,8.95
2023-11-22T09:54:21.255Z,9.00
2023-11-22T09:57:25.854Z,9.01
2023-11-22T10:00:35.393Z,9.09
2023-11-22T10:03:40.034Z,9.20
2023-11-22T10:06:47.479Z,9.11
2023-11-22T10:09:50.057Z,9.20
2023-11-22T10:12:57.445Z,9.29
2023-11-22T10:16:13.756Z,9.30
2023-11-22T10:19:19.422Z,9.36
2023-11-22T10:22:23.331Z,9.31
2023-11-22T10:25:25.905Z,9.40
2023-11-22T10:28:29.163Z,9.41
2023-11-22T10:31:31.656Z,9.57
2023-11-22T10:34:34.835Z,9.36
2023-11-22T10:37:37.294Z,8.95
2023-11-22T10:40:40.004Z,8.63
2023-11-22T10:43:45.686Z,8.48
2023-11-22T10:46:48.499Z,8.30
2023-11-22T10:49:52.079Z,8.29
2023-11-22T10:52:58.099Z,8.18
2023-11-22T10:56:08.329Z,8.26
2023-11-22T10:59:14.948Z,8.20
2023-11-22T11:02:22.212Z,8.16
2023-11-22T11:05:31.718Z,8.12
2023-11-22T11:08:35.774Z,8.11
2023-11-22T11:11:40.551Z,8.10
2023-11-22T11:14:46.296Z,8.03
2023-11-22T11:18:05.447Z,8.09
2023-11-22T11:21:13.096Z,8.15
2023-11-22T11:24:16.042Z,8.13
2023-11-22T11:27:20.555Z,8.21
2023-11-22T11:30:44.318Z,8.24
2023-11-22T11:33:49.768Z,8.19
2023-11-22T11:36:58.204Z,8.21
2023-11-22T11:40:00.813Z,8.29
2023-11-22T11:43:03.570Z,8.34
2023-11-22T11:46:12.617Z,8.45
2023-11-22T11:57:32.084Z,8.63
2023-11-22T12:00:34.801Z,8.77
2023-11-22T12:03:37.608Z,8.77
2023-11-22T12:06:40.964Z,8.81
2023-11-22T12:09:43.536Z,9.02
2023-11-22T12:12:47.235Z,8.94
2023-11-22T12:15:49.930Z,8.99
2023-11-22T12:18:52.985Z,9.10
2023-11-22T12:21:55.948Z,9.07
2023-11-22T12:24:58.215Z,9.16
2023-11-22T12:28:01.800Z,9.16
2023-11-22T12:31:11.173Z,9.31
2023-11-22T12:34:16.498Z,9.41
2023-11-22T12:37:18.936Z,9.40
2023-11-22T12:40:22.294Z,9.34
2023-11-22T12:43:30.103Z,9.39
2023-11-22T12:46:50.161Z,9.49
2023-11-22T12:49:52.774Z,9.52
2023-11-22T12:52:55.685Z,9.44
2023-11-22T12:55:58.477Z,9.38
2023-11-22T12:59:01.905Z,9.43
2023-11-22T13:02:04.283Z,9.50
2023-11-22T13:05:13.102Z,9.22
2023-11-22T13:08:15.508Z,9.14
2023-11-22T13:11:20.191Z,9.16
2023-11-22T13:14:22.426Z,9.21
2023-11-22T13:17:24.997Z,9.01
2023-11-22T13:20:27.970Z,8.91
2023-11-22T13:23:30.637Z,8.76
2023-11-22T13:26:32.953Z,8.81
2023-11-22T13:29:35.712Z,8.75
2023-11-22T13:32:38.126Z,8.78
2023-11-22T13:35:41.110Z,8.75
2023-11-22T13:38:43.864Z,8.67
2023-11-22T13:41:47.099Z,8.73
2023-11-22T13:44:49.968Z,8.68
2023-11-22T13:47:58.509Z,8.66
2023-11-22T13:51:01.582Z,8.73
2023-11-22T13:54:04.649Z,8.67
2023-11-22T13:57:07.327Z,8.70
2023-11-22T14:00:12.721Z,8.69
2023-11-22T14:03:15.249Z,8.65
2023-11-22T14:06:18.221Z,8.56
2023-11-22T14:09:20.993Z,8.43
2023-11-22T14:12:23.220Z,8.27
2023-11-22T14:15:25.654Z,8.15
2023-11-22T14:18:27.888Z,8.15
2023-11-22T14:21:33.289Z,8.08
2023-11-22T14:24:38.094Z,7.99
2023-11-22T14:27:46.024Z,8.02
2023-11-22T14:30:48.262Z,7.99
2023-11-22T14:33:50.743Z,7.94
2023-11-22T14:36:52.944Z,7.94
2023-11-22T14:39:55.467Z,7.83
2023-11-22T14:42:57.958Z,7.82
2023-11-22T14:46:00.440Z,7.77
2023-11-22T14:49:02.645Z,7.74
2023-11-22T14:52:05.502Z,7.67
2023-11-22T14:55:08.412Z,7.66
2023-11-22T14:58:10.991Z,7.62
2023-11-22T15:01:13.365Z,7.50
2023-11-22T15:04:16.404Z,7.56
2023-11-22T15:07:18.528Z,7.54
2023-11-22T15:10:26.790Z,7.45
2023-11-22T15:13:29.297Z,7.44
2023-11-22T15:16:32.888Z,7.34
2023-11-22T15:19:38.909Z,7.23
2023-11-22T15:22:42.533Z,7.22
2023-11-22T15:25:44.714Z,7.17
2023-11-22T15:28:47.791Z,7.29
2023-11-22T15:31:50.100Z,7.18
2023-11-22T15:34:52.844Z,7.13
2023-11-22T15:37:56.133Z,7.03
2023-11-22T15:41:08.022Z,6.99
2023-11-22T15:44:18.005Z,6.93
2023-11-22T15:47:20.707Z,6.92
2023-11-22T15:50:22.935Z,6.77
2023-11-22T15:53:25.510Z,6.78
2023-11-22T15:56:28.489Z,6.82
2023-11-22T15:59:30.988Z,6.81
2023-11-22T16:02:33.278Z,6.77
2023-11-22T16:05:35.758Z,6.90
2023-11-22T16:08:37.946Z,6.89
2023-11-22T16:11:40.434Z,7.02
2023-11-22T16:14:42.639Z,6.90
2023-11-22T16:17:45.114Z,6.82
2023-11-22T16:20:47.376Z,6.84
2023-11-22T16:23:50.554Z,6.87
2023-11-22T16:26:53.564Z,6.88
2023-11-22T16:29:56.833Z,6.93
2023-11-22T16:32:59.130Z,7.01
2023-11-22T16:36:01.915Z,7.04
